createdAt,value
2023-04-29T00:02:00.104Z,9.10
2023-04-29T00:04:29.558Z,8.77
2023-04-29T00:06:58.728Z,9.43
2023-04-29T00:09:28.090Z,8.40
2023-04-29T00:11:57.378Z,8.40
2023-04-29T00:14:27.930Z,9.40
2023-04-29T00:16:57.329Z,9.10
2023-04-29T00:19:26.724Z,9.30
2023-04-29T00:21:55.979Z,8.67
2023-04-29T00:24:25.275Z,8.10
2023-04-29T00:26:54.996Z,9.50
2023-04-29T00:29:24.182Z,8.40
2023-04-29T00:31:55.018Z,9.40
2023-04-29T00:34:24.545Z,10.77
2023-04-29T00:36:53.624Z,9.10
2023-04-29T00:39:23.028Z,8.73
2023-04-29T00:41:52.440Z,9.00
2023-04-29T00:44:21.803Z,8.27
2023-04-29T00:46:51.051Z,8.03
2023-04-29T00:49:21.767Z,8.60
2023-04-29T00:51:51.077Z,8.23
2023-04-29T00:54:20.420Z,10.30
2023-04-29T00:56:50.569Z,8.00
2023-04-29T00:59:20.048Z,9.07
2023-04-29T01:01:51.268Z,9.77
2023-04-29T01:04:22.501Z,9.33
2023-04-29T01:07:00.232Z,9.40
2023-04-29T01:09:41.661Z,10.80
2023-04-29T01:12:23.867Z,9.13
2023-04-29T01:15:04.995Z,9.00
2023-04-29T01:17:41.428Z,9.87
2023-04-29T01:20:13.483Z,10.27
2023-04-29T01:22:43.245Z,11.53
2023-04-29T01:25:13.719Z,10.97
2023-04-29T01:28:15.736Z,10.37
2023-04-29T01:30:58.497Z,11.17
2023-04-29T01:33:38.062Z,11.30
2023-04-29T01:36:20.142Z,12.50
2023-04-29T01:39:12.424Z,11.53
2023-04-29T01:41:46.090Z,11.30
2023-04-29T01:44:25.720Z,11.80
2023-04-29T01:46:58.951Z,12.20
2023-04-29T01:49:38.746Z,12.03
2023-04-29T01:52:08.322Z,10.70
2023-04-29T01:54:38.991Z,12.20
2023-04-29T01:57:09.480Z,12.97
2023-04-29T02:00:05.066Z,12.53
2023-04-29T02:02:45.083Z,13.03
2023-04-29T02:05:26.682Z,13.60
2023-04-29T02:07:59.287Z,12.43
2023-04-29T02:10:29.312Z,12.00
2023-04-29T02:13:13.593Z,15.23
2023-04-29T02:15:43.691Z,13.70
2023-04-29T02:18:12.798Z,14.07
2023-04-29T02:20:43.220Z,15.07
2023-04-29T02:23:12.617Z,14.37
2023-04-29T02:25:41.833Z,12.97
2023-04-29T02:28:12.285Z,12.70
2023-04-29T02:30:42.847Z,13.80
2023-04-29T02:33:12.004Z,12.63
2023-04-29T02:35:41.148Z,13.10
2023-04-29T02:38:11.961Z,15.77
2023-04-29T02:40:44.140Z,15.40
2023-04-29T02:43:15.060Z,16.30
2023-04-29T02:45:44.719Z,15.50
2023-04-29T02:48:13.858Z,15.13
2023-04-29T02:50:43.908Z,14.27
2023-04-29T02:53:13.290Z,15.80
2023-04-29T02:55:43.424Z,16.03
2023-04-29T02:58:13.962Z,15.10
2023-04-29T03:00:43.391Z,14.90
2023-04-29T03:03:12.675Z,16.67
2023-04-29T03:05:41.878Z,16.53
2023-04-29T03:08:11.373Z,15.80
2023-04-29T03:10:41.743Z,16.93
2023-04-29T03:13:11.037Z,16.80
2023-04-29T03:15:41.942Z,17.87
2023-04-29T03:18:11.295Z,16.67
2023-04-29T03:20:40.660Z,15.90
2023-04-29T03:23:09.893Z,15.10
2023-04-29T03:25:39.286Z,16.23
2023-04-29T03:28:09.299Z,16.70
2023-04-29T03:30:40.717Z,16.70
2023-04-29T03:33:09.988Z,21.50
2023-04-29T03:35:39.519Z,17.10
2023-04-29T03:38:31.008Z,22.43
2023-04-29T03:41:00.097Z,23.43
2023-04-29T03:43:29.481Z,19.90
2023-04-29T03:46:00.009Z,19.73
2023-04-29T03:48:29.441Z,18.50
2023-04-29T03:50:58.701Z,20.50
2023-04-29T03:53:27.839Z,19.20
2023-04-29T03:55:57.433Z,20.97
2023-04-29T03:58:26.788Z,22.60
2023-04-29T04:00:58.678Z,20.70
2023-04-29T04:03:38.504Z,22.13
2023-04-29T04:06:07.764Z,20.50
2023-04-29T04:08:36.901Z,21.83
2023-04-29T04:11:15.135Z,21.10
2023-04-29T04:13:47.486Z,22.00
2023-04-29T04:16:18.151Z,21.20
2023-04-29T04:18:47.265Z,21.27
2023-04-29T04:21:16.547Z,24.00
2023-04-29T04:23:50.237Z,22.40
2023-04-29T04:26:23.777Z,22.17
2023-04-29T04:29:05.173Z,24.30
2023-04-29T04:31:52.742Z,24.27
2023-04-29T04:34:22.576Z,25.53
2023-04-29T04:36:53.901Z,24.50
2023-04-29T04:39:24.657Z,22.67
2023-04-29T04:41:55.609Z,21.57
2023-04-29T04:44:25.434Z,21.87
2023-04-29T04:47:06.712Z,23.80
2023-04-29T04:49:45.408Z,23.30
2023-04-29T04:52:15.475Z,23.00
2023-04-29T04:54:47.708Z,24.40
2023-04-29T04:57:24.474Z,23.30
2023-04-29T04:59:54.484Z,23.67
2023-04-29T05:02:25.377Z,26.67
2023-04-29T05:04:54.957Z,28.47
2023-04-29T05:07:27.858Z,23.30
2023-04-29T05:10:03.023Z,25.50
2023-04-29T05:12:35.457Z,25.70
2023-04-29T05:15:06.023Z,25.23
2023-04-29T05:17:38.463Z,24.60
2023-04-29T05:20:09.524Z,24.97
2023-04-29T05:22:38.784Z,28.00
2023-04-29T05:25:08.808Z,24.83
2023-04-29T05:27:39.344Z,26.20
2023-04-29T05:30:13.047Z,22.83
2023-04-29T05:32:43.657Z,27.00
2023-04-29T05:38:09.373Z,23.00
2023-04-29T05:40:41.868Z,21.57
2023-04-29T05:43:29.462Z,22.43
2023-04-29T05:45:59.753Z,22.87
2023-04-29T05:48:30.618Z,23.77
2023-04-29T05:51:00.369Z,21.97
2023-04-29T05:53:29.776Z,22.50
2023-04-29T05:59:40.776Z,20.90
2023-04-29T06:02:12.552Z,22.67
2023-04-29T06:04:48.062Z,20.13
2023-04-29T06:07:43.301Z,21.80
2023-04-29T06:10:33.488Z,21.50
2023-04-29T06:13:02.685Z,22.57
2023-04-29T06:15:32.099Z,22.70
2023-04-29T06:18:01.336Z,21.40
2023-04-29T06:20:32.124Z,19.97
2023-04-29T06:23:01.335Z,21.23
2023-04-29T06:25:31.155Z,21.80
2023-04-29T06:28:04.548Z,20.93
2023-04-29T06:30:34.504Z,21.97
2023-04-29T06:33:03.878Z,20.80
2023-04-29T06:35:34.521Z,20.47
2023-04-29T06:38:13.944Z,20.10
2023-04-29T06:41:03.694Z,20.63
2023-04-29T06:43:51.599Z,20.10
2023-04-29T06:46:40.263Z,18.90
2023-04-29T06:49:13.463Z,17.00
2023-04-29T06:51:44.459Z,16.93
2023-04-29T06:54:14.300Z,19.37
2023-04-29T06:56:44.221Z,20.80
2023-04-29T06:59:18.622Z,20.40
2023-04-29T07:01:49.620Z,16.47
2023-04-29T07:04:28.105Z,18.83
2023-04-29T07:07:34.104Z,17.57
2023-04-29T07:10:06.217Z,17.50
2023-04-29T07:12:35.565Z,21.00
2023-04-29T07:15:04.846Z,20.63
2023-04-29T07:17:37.537Z,20.80
2023-04-29T07:20:08.017Z,20.47
2023-04-29T07:22:38.839Z,19.67
2023-04-29T07:25:14.581Z,20.53
2023-04-29T07:27:43.979Z,21.60
2023-04-29T07:30:13.697Z,21.50
2023-04-29T07:32:43.429Z,19.33
2023-04-29T07:35:12.675Z,19.23
2023-04-29T07:37:44.123Z,18.83
2023-04-29T07:40:13.856Z,19.70
2023-04-29T07:42:43.070Z,17.67
2023-04-29T07:45:14.095Z,17.40
2023-04-29T07:47:43.575Z,16.33
2023-04-29T07:50:13.102Z,15.30
2023-04-29T07:52:46.038Z,14.40
2023-04-29T07:55:19.115Z,15.37
2023-04-29T07:57:48.611Z,17.03
2023-04-29T08:00:18.157Z,16.00
2023-04-29T08:02:52.408Z,13.43
2023-04-29T08:05:22.616Z,15.70
2023-04-29T08:07:53.789Z,14.93
2023-04-29T08:10:23.460Z,14.47
2023-04-29T08:12:52.885Z,14.47
2023-04-29T08:15:22.395Z,15.43
2023-04-29T08:17:52.105Z,14.90
2023-04-29T08:20:23.529Z,13.67
2023-04-29T08:22:54.848Z,14.70
2023-04-29T08:25:24.171Z,16.10
2023-04-29T08:27:53.958Z,15.10
2023-04-29T08:30:23.491Z,15.00
2023-04-29T08:32:52.957Z,12.67
2023-04-29T08:35:22.546Z,13.80
2023-04-29T08:37:54.465Z,14.60
2023-04-29T08:40:24.325Z,16.00
2023-04-29T08:42:57.725Z,13.83
2023-04-29T08:45:29.892Z,17.00
2023-04-29T08:48:01.038Z,15.57
2023-04-29T08:50:31.576Z,15.30
2023-04-29T08:53:06.713Z,17.47
2023-04-29T08:55:42.463Z,17.60
2023-04-29T08:58:15.485Z,19.07
2023-04-29T09:00:46.797Z,18.17
2023-04-29T09:03:25.386Z,20.63
2023-04-29T09:05:57.124Z,18.43
2023-04-29T09:08:28.415Z,20.47
2023-04-29T09:10:59.369Z,21.30
2023-04-29T09:13:30.100Z,21.77
2023-04-29T09:16:00.028Z,21.17
2023-04-29T09:18:48.863Z,22.97
2023-04-29T09:21:22.048Z,24.63
2023-04-29T09:24:00.584Z,24.57
2023-04-29T09:26:40.949Z,26.50
2023-04-29T09:29:18.637Z,23.60
2023-04-29T09:31:50.300Z,23.83
2023-04-29T09:34:35.851Z,26.87
2023-04-29T09:37:05.368Z,25.17
2023-04-29T09:39:42.282Z,24.23
2023-04-29T09:42:11.485Z,31.53
2023-04-29T09:44:45.402Z,30.73
2023-04-29T09:47:15.011Z,32.37
2023-04-29T09:49:46.979Z,30.63
2023-04-29T09:52:18.418Z,32.77
2023-04-29T09:54:49.189Z,33.45
2023-04-29T09:57:25.698Z,31.87
2023-04-29T09:59:55.519Z,34.33
2023-04-29T10:02:25.782Z,36.47
2023-04-29T10:04:59.275Z,36.90
2023-04-29T10:07:31.595Z,36.60
2023-04-29T10:10:06.849Z,33.07
2023-04-29T10:12:41.419Z,32.70
2023-04-29T10:15:26.570Z,45.20
2023-04-29T10:18:19.127Z,33.57
2023-04-29T10:20:55.116Z,34.63
2023-04-29T10:23:26.387Z,32.60
2023-04-29T10:25:59.047Z,32.37
2023-04-29T10:28:29.430Z,28.70
2023-04-29T10:31:02.730Z,28.13
2023-04-29T10:33:34.952Z,33.20
2023-04-29T10:36:39.137Z,31.33
2023-04-29T10:39:20.570Z,28.70
2023-04-29T10:42:08.354Z,31.07
2023-04-29T10:45:31.580Z,32.10
2023-04-29T10:48:17.548Z,25.90
2023-04-29T10:51:07.861Z,28.27
2023-04-29T10:54:02.162Z,27.73
2023-04-29T10:56:43.992Z,28.97
2023-04-29T10:59:16.225Z,23.60
2023-04-29T11:01:47.808Z,24.47
2023-04-29T11:04:18.092Z,24.43
2023-04-29T11:06:49.324Z,25.20
2023-04-29T11:12:23.173Z,23.90
2023-04-29T11:14:55.806Z,24.80
2023-04-29T11:17:28.333Z,23.93
2023-04-29T11:19:57.966Z,23.33
2023-04-29T11:22:28.718Z,24.73
2023-04-29T11:25:00.792Z,20.67
2023-04-29T11:27:32.747Z,20.63
2023-04-29T11:30:06.657Z,19.63
2023-04-29T11:32:37.363Z,18.87
2023-04-29T11:35:11.818Z,18.90
2023-04-29T11:37:42.400Z,18.37
2023-04-29T11:40:13.404Z,19.43
2023-04-29T11:42:47.131Z,17.10
2023-04-29T11:45:19.866Z,17.40
2023-04-29T11:47:50.781Z,17.67
2023-04-29T11:50:21.287Z,16.10
2023-04-29T11:52:53.115Z,18.13
2023-04-29T11:55:22.245Z,16.30
2023-04-29T11:57:52.644Z,17.17
2023-04-29T12:00:23.484Z,16.77
2023-04-29T12:02:52.797Z,17.57
2023-04-29T12:05:26.729Z,17.23
2023-04-29T12:07:57.092Z,16.60
2023-04-29T12:10:26.183Z,16.77
2023-04-29T12:12:55.456Z,16.30
2023-04-29T12:15:27.305Z,15.60
2023-04-29T12:17:56.815Z,15.60
2023-04-29T12:20:29.341Z,16.90
2023-04-29T12:22:59.341Z,15.87
2023-04-29T12:25:30.542Z,16.00
2023-04-29T12:28:05.649Z,14.40
2023-04-29T12:30:38.912Z,14.50
2023-04-29T12:33:11.246Z,14.23
2023-04-29T12:35:40.450Z,28.97
2023-04-29T12:38:11.340Z,32.97
2023-04-29T12:40:40.787Z,11.43
2023-04-29T12:43:11.815Z,12.53
2023-04-29T12:45:43.068Z,13.53
2023-04-29T12:48:25.408Z,13.10
2023-04-29T12:50:59.905Z,10.67
2023-04-29T12:53:30.983Z,10.77
2023-04-29T12:56:00.793Z,9.57
2023-04-29T12:58:31.491Z,10.30
2023-04-29T13:01:02.388Z,9.47
2023-04-29T13:03:32.119Z,9.30
2023-04-29T13:06:01.527Z,7.40
2023-04-29T13:08:30.914Z,8.67
2023-04-29T13:11:00.152Z,6.93
2023-04-29T13:13:29.426Z,8.20
2023-04-29T13:15:58.735Z,7.63
2023-04-29T13:18:31.289Z,7.43
2023-04-29T13:21:02.591Z,7.87
2023-04-29T13:23:31.876Z,6.63
2023-04-29T13:26:01.294Z,8.27
2023-04-29T13:28:30.485Z,7.70
2023-04-29T13:30:59.683Z,7.87
2023-04-29T13:33:30.214Z,8.90
2023-04-29T13:35:59.347Z,7.97
2023-04-29T13:38:28.576Z,7.33
2023-04-29T13:40:57.774Z,9.60
2023-04-29T13:43:36.703Z,7.60
2023-04-29T13:46:08.430Z,10.17
2023-04-29T13:57:04.788Z,10.73
2023-04-29T13:59:37.874Z,10.67
2023-04-29T14:04:26.917Z,10.67
2023-04-29T14:06:56.373Z,10.83
2023-04-29T14:09:26.411Z,11.37
2023-04-29T14:11:55.597Z,12.03
2023-04-29T14:14:25.249Z,11.03
2023-04-29T14:16:54.353Z,12.17
2023-04-29T14:19:23.527Z,11.00
2023-04-29T14:21:54.209Z,9.60
2023-04-29T14:24:23.659Z,10.03
2023-04-29T14:26:53.564Z,10.50
2023-04-29T14:29:22.815Z,10.57
2023-04-29T14:31:52.081Z,12.63
2023-04-29T14:34:21.358Z,18.30
2023-04-29T14:36:50.472Z,9.40
2023-04-29T14:39:21.063Z,10.50
2023-04-29T14:41:50.118Z,8.57
2023-04-29T14:44:19.188Z,8.37
2023-04-29T14:46:48.392Z,13.97
2023-04-29T14:49:17.895Z,12.93
2023-04-29T14:51:47.224Z,11.60
2023-04-29T14:54:16.418Z,8.00
2023-04-29T14:56:46.976Z,9.13
2023-04-29T14:59:16.875Z,7.90
2023-04-29T15:01:46.253Z,7.10
2023-04-29T15:04:15.339Z,8.30
2023-04-29T15:06:44.783Z,6.87
2023-04-29T15:09:13.955Z,8.13
2023-04-29T15:11:43.073Z,7.67
2023-04-29T15:14:13.550Z,6.97
2023-04-29T15:16:42.641Z,7.80
2023-04-29T15:19:11.714Z,8.63
2023-04-29T15:21:40.887Z,7.43
2023-04-29T15:24:10.150Z,8.43
2023-04-29T15:26:39.443Z,7.30
2023-04-29T15:29:08.516Z,6.67
2023-04-29T15:31:39.292Z,6.57
2023-04-29T15:34:08.485Z,6.70
2023-04-29T15:36:37.574Z,6.73
2023-04-29T15:39:06.645Z,7.13
2023-04-29T15:41:36.509Z,6.43
2023-04-29T15:44:05.810Z,8.30
2023-04-29T15:46:34.953Z,6.77
2023-04-29T15:49:06.718Z,7.43
2023-04-29T15:51:35.768Z,7.03
2023-04-29T15:54:05.611Z,6.93
2023-04-29T15:56:34.923Z,6.40
2023-04-29T15:59:04.082Z,6.00
2023-04-29T16:01:34.437Z,6.70
2023-04-29T16:04:06.837Z,7.13
2023-04-29T16:06:36.154Z,7.60
2023-04-29T16:09:06.190Z,7.20
2023-04-29T16:11:35.466Z,6.90
2023-04-29T16:14:04.578Z,7.20
2023-04-29T16:16:34.009Z,7.50
2023-04-29T16:19:03.150Z,8.40
2023-04-29T16:21:34.201Z,8.53
2023-04-29T16:24:03.342Z,7.53
2023-04-29T16:26:33.200Z,7.67
2023-04-29T16:29:02.288Z,7.57
2023-04-29T16:31:31.525Z,7.13
2023-04-29T16:34:00.752Z,9.10
2023-04-29T16:36:30.205Z,6.83
2023-04-29T16:39:00.792Z,8.13
2023-04-29T16:41:30.124Z,7.23
2023-04-29T16:43:59.952Z,7.30
2023-04-29T16:46:30.012Z,7.33
2023-04-29T16:48:59.225Z,6.37
2023-04-29T16:51:29.327Z,5.83
2023-04-29T16:53:59.810Z,7.23
2023-04-29T16:56:29.078Z,6.00
2023-04-29T16:58:58.456Z,5.33
2023-04-29T17:01:27.688Z,4.97
2023-04-29T17:03:57.972Z,4.23
2023-04-29T17:06:27.939Z,4.00
2023-04-29T17:08:57.169Z,4.87
2023-04-29T17:11:28.088Z,3.57
2023-04-29T17:13:57.234Z,4.17
2023-04-29T17:16:27.451Z,3.73
2023-04-29T17:18:56.657Z,3.87
2023-04-29T17:21:26.146Z,3.90
2023-04-29T17:23:55.415Z,3.97
2023-04-29T17:26:24.728Z,3.80
2023-04-29T17:28:55.365Z,3.40
2023-04-29T17:31:30.967Z,4.00
2023-04-29T17:34:18.409Z,5.00
2023-04-29T17:36:48.360Z,3.70
2023-04-29T17:39:17.579Z,3.93
2023-04-29T17:41:47.113Z,5.33
2023-04-29T17:44:17.688Z,4.03
2023-04-29T17:46:46.887Z,4.17
2023-04-29T17:49:17.100Z,3.80
2023-04-29T17:51:46.232Z,4.27
2023-04-29T17:54:15.283Z,4.10
2023-04-29T17:56:44.417Z,3.90
2023-04-29T17:59:13.631Z,4.10
2023-04-29T18:01:44.418Z,3.80
2023-04-29T18:04:13.750Z,4.13
2023-04-29T18:06:42.992Z,3.40
2023-04-29T18:09:12.145Z,2.90
2023-04-29T18:11:41.526Z,2.97
2023-04-29T18:14:11.030Z,3.87
2023-04-29T18:16:40.315Z,3.57
2023-04-29T18:19:11.652Z,4.20
2023-04-29T18:21:47.079Z,3.87
2023-04-29T18:24:25.013Z,4.00
2023-04-29T18:27:01.479Z,4.20
2023-04-29T18:29:42.997Z,3.90
2023-04-29T18:32:23.398Z,3.83
2023-04-29T18:35:04.965Z,3.00
2023-04-29T18:37:39.157Z,3.60
2023-04-29T18:40:17.308Z,3.40
2023-04-29T18:42:54.027Z,3.30
2023-04-29T18:45:35.251Z,4.40
2023-04-29T18:48:10.250Z,3.43
2023-04-29T18:50:46.370Z,3.27
2023-04-29T18:53:31.652Z,3.70
2023-04-29T18:56:19.869Z,3.40
2023-04-29T18:58:56.022Z,3.53
2023-04-29T19:01:30.053Z,3.87
2023-04-29T19:04:17.475Z,3.40
2023-04-29T19:07:09.614Z,3.30
2023-04-29T19:09:50.042Z,3.63
2023-04-29T19:12:29.545Z,3.10
2023-04-29T19:15:07.209Z,4.20
2023-04-29T19:17:47.867Z,2.80
2023-04-29T19:20:32.229Z,3.30
2023-04-29T19:23:18.188Z,4.10
2023-04-29T19:25:54.776Z,3.27
2023-04-29T19:28:32.899Z,4.63
2023-04-29T19:31:06.891Z,4.03
2023-04-29T19:33:58.859Z,4.27
2023-04-29T19:36:37.918Z,4.80
2023-04-29T19:39:24.708Z,4.57
2023-04-29T19:42:04.941Z,5.63
2023-04-29T19:44:41.535Z,4.67
2023-04-29T19:47:24.171Z,5.30
2023-04-29T19:50:07.523Z,5.80
2023-04-29T19:52:49.041Z,5.90
2023-04-29T19:55:30.052Z,6.00
2023-04-29T19:58:09.770Z,5.77
2023-04-29T20:00:46.964Z,7.13
2023-04-29T20:03:30.461Z,6.53
2023-04-29T20:06:07.736Z,7.17
2023-04-29T20:08:44.264Z,6.47
2023-04-29T20:11:39.189Z,6.93
2023-04-29T20:14:20.015Z,5.80
2023-04-29T20:17:10.676Z,6.43
2023-04-29T20:19:52.467Z,7.00
2023-04-29T20:22:37.497Z,6.30
2023-04-29T20:25:18.513Z,7.37
2023-04-29T20:28:08.042Z,5.60
2023-04-29T20:30:55.131Z,5.13
2023-04-29T20:33:38.485Z,4.47
2023-04-29T20:36:19.154Z,5.27
2023-04-29T20:39:17.124Z,6.53
2023-04-29T20:45:15.846Z,5.03
2023-04-29T20:47:54.736Z,5.87
2023-04-29T20:50:38.139Z,5.90
2023-04-29T20:53:20.362Z,5.90
2023-04-29T20:56:01.388Z,5.70
2023-04-29T20:58:45.142Z,5.10
2023-04-29T21:01:20.267Z,8.27
2023-04-29T21:03:57.221Z,5.30
2023-04-29T21:06:39.348Z,5.70
2023-04-29T21:09:20.312Z,6.13
2023-04-29T21:12:04.130Z,5.70
2023-04-29T21:17:46.952Z,6.53
2023-04-29T21:20:20.521Z,8.33
2023-04-29T21:22:54.700Z,5.87
2023-04-29T21:25:24.976Z,6.83
2023-04-29T21:27:55.091Z,6.43
2023-04-29T21:30:24.237Z,7.37
2023-04-29T21:32:54.922Z,7.10
2023-04-29T21:35:24.093Z,5.70
2023-04-29T21:37:53.191Z,6.20
2023-04-29T21:40:22.804Z,6.10
2023-04-29T21:42:52.468Z,5.33
2023-04-29T21:45:21.627Z,6.75
2023-04-29T21:47:50.961Z,4.78
2023-04-29T21:50:21.826Z,5.80
2023-04-29T21:52:51.057Z,5.20
2023-04-29T21:55:20.315Z,5.53
2023-04-29T21:57:49.528Z,5.00
2023-04-29T22:00:33.171Z,4.77
2023-04-29T22:03:03.125Z,4.87
2023-04-29T22:05:34.018Z,5.63
2023-04-29T22:08:07.384Z,5.95
2023-04-29T22:10:40.263Z,5.20
2023-04-29T22:13:09.612Z,4.43
2023-04-29T22:15:38.962Z,5.23
2023-04-29T22:18:08.277Z,5.13
2023-04-29T22:20:39.065Z,4.50
2023-04-29T22:23:08.116Z,4.70
2023-04-29T22:25:37.361Z,5.28
2023-04-29T22:28:06.731Z,4.97
2023-04-29T22:30:35.930Z,5.03
2023-04-29T22:33:04.993Z,5.37
2023-04-29T22:35:34.174Z,5.20
2023-04-29T22:38:04.682Z,4.60
2023-04-29T22:40:33.768Z,5.10
2023-04-29T22:43:02.877Z,4.10
2023-04-29T22:45:32.219Z,3.35
2023-04-29T22:48:01.412Z,3.50
2023-04-29T22:50:30.541Z,4.78
2023-04-29T22:52:59.722Z,3.60
2023-04-29T22:55:30.286Z,3.42
2023-04-29T22:57:59.344Z,3.10
2023-04-29T23:00:28.375Z,2.97
2023-04-29T23:02:57.549Z,3.03
2023-04-29T23:05:26.881Z,2.90
2023-04-29T23:07:55.953Z,3.60
2023-04-29T23:10:25.161Z,2.85
2023-04-29T23:12:55.812Z,5.10
2023-04-29T23:15:24.870Z,3.35
2023-04-29T23:17:53.954Z,3.03
2023-04-29T23:20:23.159Z,3.03
2023-04-29T23:22:52.895Z,2.92
2023-04-29T23:25:22.041Z,2.70
2023-04-29T23:27:51.209Z,3.03
2023-04-29T23:30:21.730Z,2.95
2023-04-29T23:32:50.927Z,2.47
2023-04-29T23:35:20.207Z,3.05
2023-04-29T23:37:49.417Z,2.70
2023-04-29T23:40:18.777Z,2.90
2023-04-29T23:42:48.013Z,3.47
2023-04-29T23:45:17.378Z,2.25
2023-04-29T23:47:47.959Z,2.05
2023-04-29T23:50:17.113Z,2.08
2023-04-29T23:52:46.255Z,2.88
2023-04-29T23:55:15.374Z,2.30
2023-04-29T23:57:44.686Z,2.28
